^^
Station Historical Data
Daily Summary for January 4, 2017 Units:  English    Metric   Both
« Previous Day
Next Day »
Daily Weekly Monthly Yearly Custom
  High: Low: Average:
Temperature: 48.7 °F 28.8 °F 40.1 °F
Dew Point: 43.9 °F 13.4 °F 31.1 °F
Humidity: 97 % 37 % 73 %
Wind Speed: 19.0 mph 0.0 mph 7.2 mph
Wind Gust: 27.6 mph - -
Wind:- - WSW
Pressure: 29.81 in 29.47 in -
Precipitation: 0.01 in    
Historical Graphs
 
 
Tabular Data for January 4, 2017
Time Temperature Dew Point Pressure Wind Wind Speed Wind Gust Humidity Rainfall Rate (Hourly) solar Conditions
00:04 38.8 °F 37.8 °F 29.52 in Calm     96 % 0.00 in 0.0 W/m2 RA
00:09 38.8 °F 37.8 °F 29.52 in Calm     96 % 0.00 in 0.0 W/m2 RA
00:14 38.8 °F 37.8 °F 29.52 in Calm     96 % 0.00 in 0.0 W/m2 CLR
00:19 38.8 °F 37.8 °F 29.52 in NE 0.5 mph 2.0 mph 96 % 0.00 in 0.0 W/m2 CLR
00:24 38.8 °F 37.8 °F 29.52 in NE 0.5 mph 2.3 mph 96 % 0.00 in 0.0 W/m2 CLR
00:29 38.8 °F 37.8 °F 29.52 in Calm     96 % 0.00 in 0.0 W/m2 CLR
00:34 38.8 °F 37.8 °F 29.52 in Calm     96 % 0.00 in 0.0 W/m2 CLR
00:39 38.8 °F 37.8 °F 29.52 in Calm     96 % 0.00 in 0.0 W/m2 CLR
00:44 38.8 °F 37.8 °F 29.52 in Calm     96 % 0.00 in 0.0 W/m2 CLR
00:49 38.7 °F 37.7 °F 29.52 in SE 1.7 mph 2.3 mph 96 % 0.00 in 0.0 W/m2 CLR
00:54 38.7 °F 37.7 °F 29.52 in Calm   2.3 mph 96 % 0.00 in 0.0 W/m2 CLR
00:59 38.7 °F 37.7 °F 29.52 in Calm     96 % 0.00 in 0.0 W/m2 CLR
01:04 38.8 °F 37.8 °F 29.51 in Calm     96 % 0.00 in 0.0 W/m2 CLR
01:09 38.7 °F 37.7 °F 29.51 in SW 1.9 mph 3.0 mph 96 % 0.00 in 0.0 W/m2 CLR
01:14 38.7 °F 37.7 °F 29.50 in Calm     96 % 0.00 in 0.0 W/m2 CLR
01:19 38.7 °F 37.7 °F 29.50 in Calm     96 % 0.00 in 0.0 W/m2 CLR
01:24 38.8 °F 37.8 °F 29.51 in SW 2.0 mph 3.5 mph 96 % 0.00 in 0.0 W/m2 CLR
01:29 38.8 °F 37.8 °F 29.50 in SW 0.6 mph 2.3 mph 96 % 0.00 in 0.0 W/m2 CLR
01:34 38.8 °F 37.8 °F 29.50 in Calm     96 % 0.00 in 0.0 W/m2 CLR
01:39 38.8 °F 37.8 °F 29.50 in Calm     96 % 0.00 in 0.0 W/m2 CLR
01:44 38.8 °F 37.8 °F 29.50 in SW 2.0 mph 3.5 mph 96 % 0.00 in 0.0 W/m2 CLR
01:49 38.8 °F 37.8 °F 29.50 in SW 0.4 mph 2.3 mph 96 % 0.00 in 0.0 W/m2 CLR
01:54 38.9 °F 37.9 °F 29.50 in SW 0.4 mph 2.3 mph 96 % 0.00 in 0.0 W/m2 CLR
01:59 38.8 °F 37.8 °F 29.49 in Calm     96 % 0.01 in 0.0 W/m2 RA
02:04 38.9 °F 37.9 °F 29.49 in SW 1.2 mph 3.5 mph 96 % 0.01 in 0.0 W/m2 RA
02:09 38.9 °F 37.9 °F 29.49 in SW 0.7 mph 2.3 mph 96 % 0.01 in 0.0 W/m2
02:14 38.9 °F 37.9 °F 29.48 in Calm     96 % 0.01 in 0.0 W/m2 CLR
02:19 38.9 °F 37.9 °F 29.48 in Calm     96 % 0.01 in 0.0 W/m2 CLR
02:24 39.0 °F 38.0 °F 29.47 in SW 2.1 mph 3.5 mph 96 % 0.01 in 0.0 W/m2 CLR
02:29 39.0 °F 38.0 °F 29.48 in SW 2.9 mph 3.5 mph 96 % 0.01 in 0.0 W/m2 CLR
02:34 39.0 °F 38.0 °F 29.49 in SW 3.4 mph 4.6 mph 96 % 0.01 in 0.0 W/m2 CLR
02:39 39.0 °F 38.0 °F 29.50 in SW 2.4 mph 4.6 mph 96 % 0.01 in 0.0 W/m2 CLR
02:44 39.1 °F 38.1 °F 29.49 in WSW 0.3 mph 2.3 mph 96 % 0.01 in 0.0 W/m2 CLR
02:49 39.1 °F 38.1 °F 29.49 in WSW 1.9 mph 5.8 mph 96 % 0.01 in 0.0 W/m2 CLR
02:54 39.2 °F 38.2 °F 29.49 in SW 3.9 mph 11.5 mph 96 % 0.01 in 0.0 W/m2 CLR
02:59 39.3 °F 38.3 °F 29.49 in WSW 2.4 mph 5.0 mph 96 % 0.00 in 0.0 W/m2 CLR
03:04 39.3 °F 38.3 °F 29.49 in WSW 2.4 mph 8.0 mph 96 % 0.00 in 0.0 W/m2 CLR
03:09 39.4 °F 38.4 °F 29.49 in SW 1.1 mph 3.0 mph 96 % 0.00 in 0.0 W/m2 CLR
03:14 39.4 °F 38.4 °F 29.49 in SW 1.3 mph 3.5 mph 96 % 0.00 in 0.0 W/m2 CLR
03:19 39.4 °F 38.4 °F 29.49 in WSW 4.0 mph 5.0 mph 96 % 0.00 in 0.0 W/m2 CLR
03:25 39.5 °F 38.5 °F 29.48 in WSW 3.7 mph 6.9 mph 96 % 0.00 in 0.0 W/m2 CLR
03:30 39.5 °F 38.5 °F 29.48 in WSW 3.3 mph 8.1 mph 96 % 0.00 in 0.0 W/m2 CLR
03:35 39.5 °F 38.5 °F 29.48 in WSW 1.7 mph 3.5 mph 96 % 0.00 in 0.0 W/m2 CLR
03:40 39.6 °F 38.6 °F 29.48 in WSW 4.4 mph 8.1 mph 96 % 0.00 in 0.0 W/m2 CLR
03:45 39.6 °F 38.6 °F 29.48 in SW 2.3 mph 4.0 mph 96 % 0.00 in 0.0 W/m2 CLR
03:50 39.7 °F 38.7 °F 29.48 in WSW 4.0 mph 8.1 mph 96 % 0.00 in 0.0 W/m2 CLR
03:55 39.7 °F 38.7 °F 29.48 in West 2.6 mph 3.5 mph 96 % 0.00 in 0.0 W/m2 CLR
04:00 39.8 °F 38.8 °F 29.48 in West 0.7 mph 2.3 mph 96 % 0.00 in 0.0 W/m2 CLR
04:05 39.8 °F 38.8 °F 29.48 in West 6.1 mph 9.2 mph 96 % 0.00 in 0.0 W/m2 CLR
04:10 39.8 °F 38.8 °F 29.49 in West 4.2 mph 6.9 mph 96 % 0.00 in 0.0 W/m2 CLR
04:15 39.8 °F 38.8 °F 29.48 in West 4.7 mph 9.2 mph 96 % 0.00 in 0.0 W/m2 CLR
04:20 39.8 °F 38.8 °F 29.48 in WSW 5.4 mph 11.5 mph 96 % 0.00 in 0.0 W/m2 CLR
04:25 39.8 °F 38.8 °F 29.49 in SW 1.1 mph 3.5 mph 96 % 0.00 in 0.0 W/m2 CLR
04:30 39.8 °F 38.8 °F 29.49 in WSW 5.4 mph 11.5 mph 96 % 0.00 in 0.0 W/m2 CLR
04:35 39.8 °F 38.8 °F 29.49 in West 4.2 mph 8.1 mph 96 % 0.00 in 0.0 W/m2 CLR
04:40 39.8 °F 38.8 °F 29.48 in SW 6.4 mph 8.1 mph 96 % 0.00 in 0.0 W/m2 CLR
04:45 39.8 °F 38.8 °F 29.49 in SW 4.2 mph 8.1 mph 96 % 0.00 in 0.0 W/m2 CLR
04:50 39.9 °F 38.8 °F 29.49 in WSW 6.0 mph 10.0 mph 96 % 0.00 in 0.0 W/m2 CLR
04:55 39.9 °F 38.9 °F 29.49 in WSW 3.0 mph 12.0 mph 96 % 0.00 in 0.0 W/m2 CLR
05:00 39.9 °F 38.9 °F 29.50 in SW 3.8 mph 9.2 mph 96 % 0.00 in 0.0 W/m2 CLR
05:05 39.9 °F 38.9 °F 29.49 in SW 4.0 mph 9.2 mph 96 % 0.00 in 0.0 W/m2 CLR
05:10 39.9 °F 38.9 °F 29.50 in WSW 4.0 mph 6.9 mph 96 % 0.00 in 0.0 W/m2 CLR
05:15 39.9 °F 38.9 °F 29.50 in SSW 3.6 mph 5.8 mph 96 % 0.00 in 0.0 W/m2 CLR
05:20 40.0 °F 39.0 °F 29.50 in SW 4.6 mph 8.1 mph 96 % 0.00 in 0.0 W/m2 CLR
05:25 40.0 °F 39.0 °F 29.50 in SW 5.7 mph 8.1 mph 96 % 0.00 in 0.0 W/m2 CLR
05:30 40.0 °F 39.0 °F 29.50 in SW 2.4 mph 5.8 mph 96 % 0.00 in 0.0 W/m2 CLR
05:35 40.0 °F 39.0 °F 29.50 in WSW 2.2 mph 4.6 mph 96 % 0.00 in 0.0 W/m2 CLR
05:40 40.0 °F 39.0 °F 29.50 in SW 4.5 mph 8.1 mph 96 % 0.00 in 0.0 W/m2 CLR
05:45 40.0 °F 39.0 °F 29.51 in SW 4.6 mph 10.4 mph 96 % 0.00 in 0.0 W/m2 CLR
05:50 40.1 °F 39.1 °F 29.51 in WSW 1.8 mph 4.6 mph 96 % 0.00 in 0.0 W/m2 CLR
05:55 40.1 °F 39.1 °F 29.51 in WSW 9.3 mph 13.8 mph 96 % 0.00 in 0.0 W/m2 CLR
06:00 40.1 °F 39.1 °F 29.51 in WSW 4.5 mph 9.2 mph 96 % 0.00 in 0.0 W/m2 CLR
06:05 40.1 °F 39.1 °F 29.51 in WSW 5.6 mph 11.5 mph 96 % 0.00 in 0.0 W/m2 CLR
06:10 40.2 °F 39.2 °F 29.52 in WSW 8.4 mph 11.5 mph 96 % 0.00 in 0.0 W/m2 CLR
06:15 40.2 °F 39.2 °F 29.52 in West 6.5 mph 9.2 mph 96 % 0.00 in 0.0 W/m2 CLR
06:20 40.2 °F 39.2 °F 29.51 in West 7.2 mph 12.7 mph 96 % 0.00 in 0.0 W/m2 CLR
06:25 40.2 °F 39.2 °F 29.52 in WSW 8.4 mph 11.5 mph 96 % 0.00 in 0.0 W/m2 CLR
06:30 40.2 °F 39.2 °F 29.51 in SW 2.0 mph 3.5 mph 96 % 0.00 in 0.0 W/m2 CLR
06:35 40.3 °F 39.3 °F 29.52 in WSW 5.1 mph 6.9 mph 96 % 0.00 in 0.0 W/m2 CLR
06:40 40.3 °F 39.3 °F 29.51 in West 3.9 mph 9.2 mph 96 % 0.00 in 0.0 W/m2 CLR
06:45 40.3 °F 39.3 °F 29.52 in SW 5.7 mph 11.5 mph 96 % 0.00 in 0.0 W/m2 CLR
06:50 40.4 °F 39.4 °F 29.52 in West 3.3 mph 8.1 mph 96 % 0.00 in 0.0 W/m2 CLR
06:55 40.4 °F 39.4 °F 29.52 in WSW 2.8 mph 4.6 mph 96 % 0.00 in 0.0 W/m2 CLR
07:00 40.4 °F 39.4 °F 29.52 in WSW 3.7 mph 4.6 mph 96 % 0.00 in 0.0 W/m2 OVC
07:05 40.4 °F 39.4 °F 29.51 in West 1.1 mph 3.5 mph 96 % 0.00 in 0.0 W/m2 OVC
07:10 40.4 °F 39.4 °F 29.51 in SW 4.4 mph 8.1 mph 96 % 0.00 in 0.0 W/m2 OVC
07:15 40.5 °F 39.4 °F 29.52 in SW 2.4 mph 6.9 mph 96 % 0.00 in 0.0 W/m2 OVC
07:20 40.5 °F 39.4 °F 29.51 in WSW 2.6 mph 4.6 mph 96 % 0.00 in 0.0 W/m2 OVC
07:25 40.5 °F 39.4 °F 29.51 in WSW 3.5 mph 4.6 mph 96 % 0.00 in 0.0 W/m2 OVC
07:30 40.6 °F 39.5 °F 29.52 in WSW 1.6 mph 3.0 mph 96 % 0.00 in 0.0 W/m2 OVC
07:36 40.6 °F 39.5 °F 29.52 in WSW 3.3 mph 5.8 mph 96 % 0.00 in 7.0 W/m2 OVC
07:41 40.6 °F 39.5 °F 29.52 in West 4.5 mph 9.2 mph 96 % 0.00 in 11.0 W/m2 OVC
07:46 40.7 °F 39.6 °F 29.52 in SW 3.0 mph 6.9 mph 96 % 0.00 in 18.0 W/m2 CLR
07:51 40.7 °F 39.6 °F 29.52 in WSW 4.6 mph 10.4 mph 96 % 0.00 in 21.0 W/m2 CLR
07:56 40.9 °F 39.8 °F 29.53 in WSW 9.4 mph 13.8 mph 96 % 0.00 in 26.0 W/m2 CLR
08:01 41.0 °F 39.9 °F 29.53 in SW 5.5 mph 11.5 mph 96 % 0.00 in 33.0 W/m2 CLR
08:06 41.1 °F 40.0 °F 29.54 in West 5.5 mph 9.2 mph 96 % 0.00 in 28.0 W/m2 CLR
08:11 41.2 °F 40.1 °F 29.54 in SSW 2.6 mph 9.2 mph 96 % 0.00 in 33.0 W/m2 CLR
08:16 41.3 °F 40.2 °F 29.55 in SW 3.9 mph 4.0 mph 96 % 0.00 in 67.0 W/m2 CLR
08:21 41.5 °F 40.4 °F 29.55 in SW 4.8 mph 8.1 mph 96 % 0.00 in 32.0 W/m2 CLR
08:26 41.5 °F 40.4 °F 29.55 in WSW 3.2 mph 10.4 mph 96 % 0.00 in 26.0 W/m2 BKN
08:31 41.6 °F 40.5 °F 29.55 in SSW 3.2 mph 6.9 mph 96 % 0.00 in 28.0 W/m2 BKN
08:36 41.6 °F 40.5 °F 29.55 in WSW 2.6 mph 10.4 mph 96 % 0.00 in 26.0 W/m2 BKN
08:41 41.7 °F 40.6 °F 29.55 in WSW 4.0 mph 6.9 mph 96 % 0.00 in 21.0 W/m2 OVC
08:46 41.7 °F 40.6 °F 29.54 in WSW 6.4 mph 9.2 mph 96 % 0.00 in 25.0 W/m2 OVC
08:51 41.8 °F 40.7 °F 29.53 in WNW 5.7 mph 9.2 mph 96 % 0.00 in 28.0 W/m2 OVC
08:56 41.8 °F 40.7 °F 29.52 in West 8.0 mph 11.5 mph 96 % 0.00 in 49.0 W/m2 BKN
09:01 41.9 °F 40.8 °F 29.51 in WNW 5.4 mph 10.4 mph 96 % 0.00 in 98.0 W/m2 CLR
09:06 42.2 °F 41.1 °F 29.51 in NNW 7.4 mph 11.5 mph 96 % 0.00 in 100.0 W/m2 CLR
09:11 42.5 °F 41.4 °F 29.52 in WNW 6.2 mph 10.4 mph 96 % 0.00 in 84.0 W/m2 SCT
09:16 42.8 °F 42.0 °F 29.52 in SW 3.8 mph 6.9 mph 97 % 0.00 in 83.0 W/m2 SCT
09:21 42.9 °F 41.8 °F 29.53 in SW 3.5 mph 4.6 mph 96 % 0.00 in 70.0 W/m2 BKN
09:26 42.9 °F 41.8 °F 29.53 in SW 3.4 mph 4.6 mph 96 % 0.00 in 53.0 W/m2 BKN
09:31 42.9 °F 41.8 °F 29.52 in WSW 2.4 mph 4.6 mph 96 % 0.00 in 76.0 W/m2 BKN
09:36 42.9 °F 41.8 °F 29.53 in SSW 3.5 mph 6.0 mph 96 % 0.00 in 90.0 W/m2 BKN
09:41 42.9 °F 41.8 °F 29.54 in SW 1.8 mph 3.5 mph 96 % 0.00 in 83.0 W/m2 BKN
09:46 43.0 °F 41.9 °F 29.54 in WSW 1.6 mph 3.5 mph 96 % 0.00 in 88.0 W/m2 BKN
09:51 43.1 °F 42.0 °F 29.54 in West 3.4 mph 7.0 mph 96 % 0.00 in 97.0 W/m2 BKN
09:56 43.2 °F 42.1 °F 29.54 in West 5.6 mph 10.4 mph 96 % 0.00 in 107.0 W/m2 BKN
10:01 43.3 °F 42.2 °F 29.54 in West 6.7 mph 11.5 mph 96 % 0.00 in 107.0 W/m2 BKN
10:06 43.4 °F 42.3 °F 29.54 in WSW 8.1 mph 11.5 mph 96 % 0.00 in 102.0 W/m2 BKN
10:11 43.5 °F 42.4 °F 29.55 in SW 5.6 mph 9.2 mph 96 % 0.00 in 88.0 W/m2 BKN
10:16 43.6 °F 42.5 °F 29.55 in West 3.4 mph 3.5 mph 96 % 0.00 in 91.0 W/m2 BKN
10:21 43.7 °F 42.6 °F 29.56 in WSW 4.3 mph 8.1 mph 96 % 0.00 in 69.0 W/m2 OVC
10:26 43.8 °F 42.7 °F 29.56 in WSW 2.4 mph 4.0 mph 96 % 0.00 in 58.0 W/m2 OVC
10:31 43.8 °F 42.7 °F 29.56 in WSW 3.1 mph 3.5 mph 96 % 0.00 in 70.0 W/m2 OVC
10:36 43.9 °F 42.8 °F 29.56 in WSW 3.4 mph 8.1 mph 96 % 0.00 in 77.0 W/m2 OVC
10:41 44.0 °F 42.9 °F 29.56 in SW 5.5 mph 9.2 mph 96 % 0.00 in 86.0 W/m2 OVC
10:46 44.1 °F 43.0 °F 29.56 in WSW 5.8 mph 10.0 mph 96 % 0.00 in 100.0 W/m2 BKN
10:51 44.3 °F 43.2 °F 29.57 in WSW 7.0 mph 11.5 mph 96 % 0.00 in 70.0 W/m2 OVC
10:56 44.4 °F 43.3 °F 29.57 in WSW 4.5 mph 10.4 mph 96 % 0.00 in 76.0 W/m2 OVC
11:01 44.5 °F 43.2 °F 29.57 in WSW 9.4 mph 16.1 mph 95 % 0.00 in 111.0 W/m2 BKN
11:06 44.6 °F 43.3 °F 29.57 in West 9.5 mph 12.0 mph 95 % 0.00 in 148.0 W/m2 BKN
11:11 45.0 °F 43.7 °F 29.57 in West 6.9 mph 11.5 mph 95 % 0.00 in 118.0 W/m2 BKN
11:16 45.3 °F 43.7 °F 29.57 in West 9.4 mph 10.4 mph 94 % 0.00 in 84.0 W/m2 OVC
11:21 45.5 °F 43.9 °F 29.57 in West 3.7 mph 7.0 mph 94 % 0.00 in 90.0 W/m2 OVC
11:26 45.7 °F 43.8 °F 29.57 in West 2.8 mph 8.1 mph 93 % 0.00 in 95.0 W/m2 OVC
11:31 45.8 °F 43.6 °F 29.57 in SW 8.8 mph 13.0 mph 92 % 0.00 in 98.0 W/m2 BKN
11:36 45.8 °F 43.3 °F 29.57 in SW 7.2 mph 11.5 mph 91 % 0.00 in 107.0 W/m2 BKN
11:41 46.0 °F 43.2 °F 29.57 in SW 10.8 mph 16.1 mph 90 % 0.00 in 111.0 W/m2 BKN
11:46 46.1 °F 43.0 °F 29.57 in SW 9.0 mph 11.5 mph 89 % 0.00 in 134.0 W/m2 BKN
11:51 46.2 °F 42.2 °F 29.57 in WSW 6.0 mph 11.5 mph 86 % 0.00 in 227.0 W/m2 FEW
11:56 46.9 °F 42.3 °F 29.57 in SW 9.1 mph 12.7 mph 84 % 0.00 in 519.0 W/m2 CLR
12:01 47.4 °F 41.2 °F 29.57 in West 8.9 mph 16.1 mph 79 % 0.00 in 480.0 W/m2 CLR
12:06 47.2 °F 40.4 °F 29.57 in West 10.7 mph 17.3 mph 77 % 0.00 in 95.0 W/m2 OVC
12:11 46.8 °F 39.3 °F 29.57 in West 9.3 mph 18.4 mph 75 % 0.00 in 40.0 W/m2 OVC
12:16 46.5 °F 39.0 °F 29.57 in WSW 12.4 mph 17.0 mph 75 % 0.00 in 84.0 W/m2 OVC
12:21 46.4 °F 38.6 °F 29.57 in West 14.8 mph 18.4 mph 74 % 0.00 in 141.0 W/m2 BKN
12:26 46.4 °F 38.6 °F 29.57 in WSW 10.0 mph 18.0 mph 74 % 0.00 in 102.0 W/m2 OVC
12:31 46.2 °F 38.4 °F 29.57 in WNW 13.1 mph 18.0 mph 74 % 0.00 in 54.0 W/m2 OVC
12:36 46.3 °F 38.5 °F 29.57 in WSW 16.5 mph 24.0 mph 74 % 0.00 in 67.0 W/m2 CLR
12:42 46.7 °F 38.1 °F 29.57 in WSW 14.4 mph 24.2 mph 72 % 0.00 in 527.0 W/m2 CLR
12:47 46.9 °F 37.3 °F 29.57 in West 15.9 mph 21.9 mph 69 % 0.00 in 485.0 W/m2 CLR
12:52 47.3 °F 36.5 °F 29.57 in WNW 11.4 mph 18.4 mph 66 % 0.00 in 482.0 W/m2 CLR
12:57 47.7 °F 36.1 °F 29.57 in WNW 14.8 mph 21.9 mph 64 % 0.00 in 480.0 W/m2 CLR
13:02 48.0 °F 36.0 °F 29.57 in WSW 12.3 mph 16.0 mph 63 % 0.00 in 471.0 W/m2 CLR
13:07 47.9 °F 35.5 °F 29.57 in WNW 12.4 mph 20.7 mph 62 % 0.00 in 471.0 W/m2 CLR
13:12 47.7 °F 35.3 °F 29.57 in West 14.1 mph 19.6 mph 62 % 0.00 in 496.0 W/m2 CLR
13:17 47.6 °F 35.2 °F 29.58 in West 16.2 mph 19.6 mph 62 % 0.00 in 578.0 W/m2 CLR
13:22 47.5 °F 34.3 °F 29.57 in West 13.0 mph 19.6 mph 60 % 0.00 in 508.0 W/m2 CLR
13:27 47.5 °F 33.9 °F 29.57 in WSW 14.8 mph 17.3 mph 59 % 0.00 in 490.0 W/m2 CLR
13:32 47.0 °F 33.8 °F 29.57 in West 8.7 mph 12.7 mph 60 % 0.00 in 69.0 W/m2 OVC
13:37 47.2 °F 34.4 °F 29.57 in West 12.0 mph 20.0 mph 61 % 0.00 in 455.0 W/m2 CLR
13:42 47.6 °F 34.4 °F 29.57 in WNW 10.7 mph 16.1 mph 60 % 0.00 in 425.0 W/m2 CLR
13:47 48.0 °F 33.9 °F 29.57 in WSW 9.2 mph 20.0 mph 58 % 0.00 in 438.0 W/m2 CLR
13:52 48.0 °F 33.0 °F 29.57 in WSW 7.6 mph 15.0 mph 56 % 0.00 in 439.0 W/m2 CLR
13:57 48.2 °F 33.7 °F 29.57 in West 8.8 mph 18.4 mph 57 % 0.00 in 494.0 W/m2 CLR
14:02 48.7 °F 33.7 °F 29.57 in West 10.9 mph 18.4 mph 56 % 0.00 in 529.0 W/m2 CLR
14:07 48.4 °F 33.4 °F 29.57 in WSW 13.1 mph 17.3 mph 56 % 0.00 in 411.0 W/m2 CLR
14:12 47.5 °F 32.6 °F 29.57 in WNW 12.4 mph 16.1 mph 56 % 0.00 in 353.0 W/m2 CLR
14:17 47.0 °F 33.0 °F 29.57 in WNW 13.8 mph 19.0 mph 58 % 0.00 in 127.0 W/m2 SCT
14:22 46.4 °F 32.4 °F 29.57 in WNW 8.3 mph 11.5 mph 58 % 0.00 in 72.0 W/m2 BKN
14:27 46.2 °F 32.7 °F 29.57 in WSW 8.0 mph 10.4 mph 59 % 0.00 in 369.0 W/m2 CLR
14:32 46.5 °F 33.4 °F 29.57 in WNW 7.9 mph 11.5 mph 60 % 0.00 in 366.0 W/m2 CLR
14:37 46.5 °F 32.5 °F 29.57 in West 6.8 mph 13.8 mph 58 % 0.00 in 151.0 W/m2 SCT
14:42 46.6 °F 32.2 °F 29.57 in West 12.8 mph 15.0 mph 57 % 0.00 in 206.0 W/m2 CLR
14:47 46.8 °F 29.6 °F 29.58 in SW 14.0 mph 25.3 mph 51 % 0.00 in 325.0 W/m2 CLR
14:52 46.6 °F 29.4 °F 29.58 in West 12.9 mph 20.7 mph 51 % 0.00 in 325.0 W/m2 CLR
14:57 46.9 °F 30.6 °F 29.58 in West 10.8 mph 15.0 mph 53 % 0.00 in 355.0 W/m2 CLR
15:02 47.4 °F 31.6 °F 29.58 in West 12.0 mph 19.6 mph 54 % 0.00 in 258.0 W/m2 CLR
15:07 47.3 °F 29.6 °F 29.58 in West 11.4 mph 17.0 mph 50 % 0.00 in 248.0 W/m2 CLR
15:12 46.5 °F 27.3 °F 29.59 in West 13.3 mph 19.6 mph 47 % 0.00 in 213.0 W/m2 FEW
15:17 46.2 °F 27.1 °F 29.59 in West 14.3 mph 21.9 mph 47 % 0.00 in 188.0 W/m2 CLR
15:22 46.1 °F 26.4 °F 29.58 in WNW 12.6 mph 19.6 mph 46 % 0.00 in 174.0 W/m2 CLR
15:27 46.0 °F 25.3 °F 29.59 in SW 16.2 mph 27.6 mph 44 % 0.00 in 155.0 W/m2 CLR
15:32 46.0 °F 24.7 °F 29.59 in West 12.9 mph 16.1 mph 43 % 0.00 in 132.0 W/m2 CLR
15:37 46.0 °F 25.3 °F 29.59 in West 9.7 mph 15.0 mph 44 % 0.00 in 118.0 W/m2 CLR
15:42 45.7 °F 25.5 °F 29.59 in West 10.2 mph 13.8 mph 45 % 0.00 in 102.0 W/m2 CLR
15:47 45.6 °F 24.9 °F 29.60 in WSW 11.5 mph 16.1 mph 44 % 0.00 in 86.0 W/m2 CLR
15:52 45.3 °F 20.5 °F 29.59 in West 13.1 mph 21.9 mph 37 % 0.00 in 63.0 W/m2 CLR
15:57 45.1 °F 21.0 °F 29.59 in WSW 12.5 mph 19.6 mph 38 % 0.00 in 51.0 W/m2 CLR
16:02 44.9 °F 20.2 °F 29.59 in WSW 8.0 mph 17.0 mph 37 % 0.00 in 44.0 W/m2 CLR
16:07 44.7 °F 20.6 °F 29.59 in WSW 13.1 mph 20.7 mph 38 % 0.00 in 33.0 W/m2 FEW
16:12 44.5 °F 20.4 °F 29.59 in SW 9.5 mph 19.6 mph 38 % 0.00 in 26.0 W/m2 SCT
16:17 44.1 °F 20.7 °F 29.60 in WSW 11.6 mph 21.0 mph 39 % 0.00 in 21.0 W/m2 SCT
16:22 43.9 °F 20.5 °F 29.60 in West 12.8 mph 24.2 mph 39 % 0.00 in 16.0 W/m2 SCT
16:27 43.5 °F 21.3 °F 29.60 in WNW 7.9 mph 12.7 mph 41 % 0.00 in 14.0 W/m2 FEW
16:32 43.3 °F 23.4 °F 29.60 in West 6.4 mph 9.2 mph 45 % 0.00 in 12.0 W/m2 CLR
16:37 43.0 °F 23.6 °F 29.60 in WNW 8.9 mph 11.5 mph 46 % 0.00 in 9.0 W/m2 CLR
16:43 42.8 °F 22.9 °F 29.60 in West 8.7 mph 11.5 mph 45 % 0.00 in 7.0 W/m2 OVC
16:48 42.7 °F 23.3 °F 29.60 in West 14.2 mph 19.6 mph 46 % 0.00 in 5.0 W/m2 OVC
16:53 42.6 °F 23.8 °F 29.61 in West 6.9 mph 13.8 mph 47 % 0.00 in 0.0 W/m2 OVC
16:58 42.3 °F 25.0 °F 29.61 in West 10.6 mph 18.4 mph 50 % 0.00 in 0.0 W/m2 OVC
17:03 42.0 °F 25.2 °F 29.61 in WNW 11.1 mph 16.0 mph 51 % 0.00 in 0.0 W/m2 CLR
17:08 41.9 °F 24.6 °F 29.62 in West 13.9 mph 25.0 mph 50 % 0.00 in 0.0 W/m2 CLR
17:13 41.6 °F 23.3 °F 29.62 in West 13.6 mph 24.2 mph 48 % 0.00 in 0.0 W/m2 CLR
17:18 41.3 °F 22.6 °F 29.62 in West 14.8 mph 20.7 mph 47 % 0.00 in 0.0 W/m2 CLR
17:23 41.0 °F 22.3 °F 29.63 in West 10.9 mph 16.0 mph 47 % 0.00 in 0.0 W/m2 CLR
17:28 40.8 °F 21.6 °F 29.63 in WNW 11.7 mph 20.0 mph 46 % 0.00 in 0.0 W/m2 CLR
17:33 40.6 °F 21.4 °F 29.63 in WNW 12.4 mph 25.3 mph 46 % 0.00 in 0.0 W/m2 CLR
17:38 40.4 °F 21.2 °F 29.64 in NW 9.3 mph 18.4 mph 46 % 0.00 in 0.0 W/m2 CLR
17:43 40.2 °F 21.0 °F 29.64 in WNW 8.1 mph 13.8 mph 46 % 0.00 in 0.0 W/m2 CLR
17:48 39.9 °F 20.8 °F 29.64 in WNW 12.3 mph 13.8 mph 46 % 0.00 in 0.0 W/m2 CLR
17:57 39.6 °F 21.0 °F 29.65 in West 15.3 mph 24.2 mph 47 % 0.00 in 0.0 W/m2 CLR
18:02 39.3 °F 20.7 °F 29.65 in WNW 19.0 mph 26.5 mph 47 % 0.00 in 0.0 W/m2 CLR
18:08 39.0 °F 20.5 °F 29.66 in West 13.1 mph 18.4 mph 47 % 0.00 in 0.0 W/m2 CLR
18:13 38.8 °F 20.3 °F 29.66 in West 12.7 mph 26.5 mph 47 % 0.00 in 0.0 W/m2 CLR
18:18 38.5 °F 20.0 °F 29.67 in WNW 14.6 mph 20.7 mph 47 % 0.00 in 0.0 W/m2 CLR
18:23 38.2 °F 19.7 °F 29.67 in West 10.6 mph 18.4 mph 47 % 0.00 in 0.0 W/m2 CLR
18:28 37.9 °F 19.9 °F 29.67 in West 13.1 mph 19.6 mph 48 % 0.00 in 0.0 W/m2 CLR
18:33 37.8 °F 19.3 °F 29.68 in WNW 10.9 mph 15.0 mph 47 % 0.00 in 0.0 W/m2 CLR
18:38 37.6 °F 19.7 °F 29.68 in WNW 11.0 mph 16.1 mph 48 % 0.00 in 0.0 W/m2 CLR
18:43 37.4 °F 19.5 °F 29.68 in NW 9.8 mph 17.3 mph 48 % 0.00 in 0.0 W/m2 CLR
18:48 37.3 °F 18.4 °F 29.69 in West 12.7 mph 19.6 mph 46 % 0.00 in 0.0 W/m2 CLR
18:53 37.1 °F 18.2 °F 29.69 in West 8.9 mph 15.0 mph 46 % 0.00 in 0.0 W/m2 CLR
18:58 36.8 °F 17.4 °F 29.69 in West 5.0 mph 10.4 mph 45 % 0.00 in 0.0 W/m2 CLR
19:03 36.7 °F 16.8 °F 29.69 in West 13.1 mph 19.6 mph 44 % 0.00 in 0.0 W/m2 CLR
19:08 36.6 °F 17.2 °F 29.70 in West 11.0 mph 16.1 mph 45 % 0.00 in 0.0 W/m2 CLR
19:13 36.4 °F 17.1 °F 29.70 in NW 9.0 mph 13.8 mph 45 % 0.00 in 0.0 W/m2 CLR
19:18 36.1 °F 16.8 °F 29.71 in WNW 12.8 mph 19.6 mph 45 % 0.00 in 0.0 W/m2 CLR
19:23 35.9 °F 16.6 °F 29.71 in WSW 10.8 mph 16.1 mph 45 % 0.00 in 0.0 W/m2 CLR
19:28 35.7 °F 16.4 °F 29.71 in NW 11.1 mph 17.3 mph 45 % 0.00 in 0.0 W/m2 CLR
19:33 35.6 °F 16.3 °F 29.71 in West 6.7 mph 17.3 mph 45 % 0.00 in 0.0 W/m2 CLR
19:38 35.4 °F 16.1 °F 29.71 in West 13.4 mph 16.1 mph 45 % 0.00 in 0.0 W/m2 CLR
19:43 35.2 °F 16.0 °F 29.72 in WSW 15.3 mph 23.0 mph 45 % 0.00 in 0.0 W/m2 CLR
19:48 35.1 °F 15.9 °F 29.72 in West 12.8 mph 20.7 mph 45 % 0.00 in 0.0 W/m2 CLR
19:53 34.9 °F 16.2 °F 29.72 in WNW 13.2 mph 18.4 mph 46 % 0.00 in 0.0 W/m2 CLR
19:58 34.7 °F 16.5 °F 29.72 in West 12.4 mph 17.3 mph 47 % 0.00 in 0.0 W/m2 CLR
20:03 34.5 °F 15.8 °F 29.72 in West 11.6 mph 18.4 mph 46 % 0.00 in 0.0 W/m2 CLR
20:08 34.3 °F 16.6 °F 29.72 in WNW 5.5 mph 10.4 mph 48 % 0.00 in 0.0 W/m2 CLR
20:13 34.1 °F 16.4 °F 29.72 in West 6.9 mph 12.0 mph 48 % 0.00 in 0.0 W/m2 CLR
20:18 33.9 °F 16.7 °F 29.73 in West 6.4 mph 11.5 mph 49 % 0.00 in 0.0 W/m2 CLR
20:23 33.6 °F 16.5 °F 29.73 in West 4.9 mph 6.9 mph 49 % 0.00 in 0.0 W/m2 CLR
20:28 33.5 °F 15.9 °F 29.73 in West 9.3 mph 14.0 mph 48 % 0.00 in 0.0 W/m2 CLR
20:33 33.4 °F 15.3 °F 29.73 in WSW 13.4 mph 26.0 mph 47 % 0.00 in 0.0 W/m2 CLR
20:38 33.4 °F 15.3 °F 29.73 in West 9.9 mph 19.0 mph 47 % 0.00 in 0.0 W/m2 CLR
20:43 33.4 °F 15.3 °F 29.73 in WSW 16.6 mph 25.3 mph 47 % 0.00 in 0.0 W/m2 CLR
20:48 33.3 °F 15.2 °F 29.73 in WNW 11.1 mph 19.6 mph 47 % 0.00 in 0.0 W/m2 CLR
20:53 33.2 °F 15.1 °F 29.74 in WSW 11.0 mph 15.0 mph 47 % 0.00 in 0.0 W/m2 CLR
20:58 33.0 °F 15.4 °F 29.74 in West 10.9 mph 16.1 mph 48 % 0.00 in 0.0 W/m2 CLR
21:03 32.9 °F 15.3 °F 29.74 in West 10.0 mph 20.0 mph 48 % 0.00 in 0.0 W/m2 CLR
21:08 32.8 °F 15.2 °F 29.74 in WNW 10.8 mph 18.4 mph 48 % 0.00 in 0.0 W/m2 CLR
21:13 32.6 °F 15.5 °F 29.75 in West 7.2 mph 12.0 mph 49 % 0.00 in 0.0 W/m2 CLR
21:18 32.4 °F 15.8 °F 29.75 in WNW 5.6 mph 12.7 mph 50 % 0.00 in 0.0 W/m2 CLR
21:23 32.3 °F 15.7 °F 29.75 in WNW 12.8 mph 18.4 mph 50 % 0.00 in 0.0 W/m2 CLR
21:28 32.2 °F 15.6 °F 29.75 in WNW 8.7 mph 18.4 mph 50 % 0.00 in 0.0 W/m2 CLR
21:33 32.1 °F 15.5 °F 29.76 in West 11.2 mph 12.7 mph 50 % 0.00 in 0.0 W/m2 CLR
21:39 32.0 °F 15.9 °F 29.76 in West 8.8 mph 11.5 mph 51 % 0.00 in 0.0 W/m2 CLR
21:44 31.8 °F 15.7 °F 29.76 in West 4.9 mph 11.5 mph 51 % 0.00 in 0.0 W/m2 CLR
21:49 31.8 °F 15.3 °F 29.76 in West 6.1 mph 14.0 mph 50 % 0.00 in 0.0 W/m2 CLR
21:54 31.7 °F 15.2 °F 29.76 in WNW 10.3 mph 17.3 mph 50 % 0.00 in 0.0 W/m2 CLR
21:59 31.6 °F 15.1 °F 29.77 in WSW 4.9 mph 11.5 mph 50 % 0.00 in 0.0 W/m2 CLR
22:04 31.4 °F 15.3 °F 29.77 in West 6.2 mph 11.5 mph 51 % 0.00 in 0.0 W/m2 CLR
22:09 31.2 °F 15.2 °F 29.77 in West 8.6 mph 11.5 mph 51 % 0.00 in 0.0 W/m2 CLR
22:14 31.2 °F 14.7 °F 29.77 in WSW 5.1 mph 12.7 mph 50 % 0.00 in 0.0 W/m2 CLR
22:19 31.2 °F 14.2 °F 29.77 in WNW 10.3 mph 15.0 mph 49 % 0.00 in 0.0 W/m2 CLR
22:24 31.2 °F 14.7 °F 29.78 in West 13.4 mph 14.0 mph 50 % 0.00 in 0.0 W/m2 CLR
22:29 31.1 °F 14.6 °F 29.78 in West 9.2 mph 15.0 mph 50 % 0.00 in 0.0 W/m2 CLR
22:34 31.0 °F 14.5 °F 29.79 in WNW 11.3 mph 16.1 mph 50 % 0.00 in 0.0 W/m2 CLR
22:39 30.9 °F 14.4 °F 29.79 in WSW 7.8 mph 15.0 mph 50 % 0.00 in 0.0 W/m2 CLR
22:44 30.8 °F 13.9 °F 29.79 in WSW 9.2 mph 11.5 mph 49 % 0.00 in 0.0 W/m2 CLR
22:49 30.7 °F 13.8 °F 29.79 in West 9.6 mph 19.6 mph 49 % 0.00 in 0.0 W/m2 CLR
22:54 30.6 °F 14.1 °F 29.79 in WSW 8.3 mph 13.0 mph 50 % 0.00 in 0.0 W/m2 CLR
22:59 30.4 °F 14.0 °F 29.79 in West 8.0 mph 16.1 mph 50 % 0.00 in 0.0 W/m2 CLR
23:04 30.2 °F 14.2 °F 29.79 in West 8.2 mph 18.0 mph 51 % 0.00 in 0.0 W/m2 CLR
23:09 30.1 °F 14.1 °F 29.80 in WSW 13.6 mph 19.6 mph 51 % 0.00 in 0.0 W/m2 CLR
23:14 30.0 °F 14.0 °F 29.80 in WNW 10.5 mph 13.8 mph 51 % 0.00 in 0.0 W/m2 CLR
23:19 29.9 °F 13.9 °F 29.80 in West 9.7 mph 12.7 mph 51 % 0.00 in 0.0 W/m2 CLR
23:24 29.8 °F 13.4 °F 29.80 in WNW 8.8 mph 13.8 mph 50 % 0.00 in 0.0 W/m2 CLR
23:29 29.7 °F 13.8 °F 29.80 in NW 5.4 mph 11.5 mph 51 % 0.00 in 0.0 W/m2 CLR
23:34 29.6 °F 13.7 °F 29.80 in WNW 9.5 mph 18.4 mph 51 % 0.00 in 0.0 W/m2 CLR
23:39 29.5 °F 13.6 °F 29.80 in WNW 12.6 mph 15.0 mph 51 % 0.00 in 0.0 W/m2 CLR
23:44 29.3 °F 13.4 °F 29.80 in West 8.0 mph 12.7 mph 51 % 0.00 in 0.0 W/m2 CLR
23:49 29.2 °F 13.7 °F 29.81 in West 3.0 mph 6.9 mph 52 % 0.00 in 0.0 W/m2 CLR
23:54 29.0 °F 13.6 °F 29.81 in West 7.0 mph 11.5 mph 52 % 0.00 in 0.0 W/m2 CLR
23:59 28.8 °F 13.4 °F 29.81 in West 7.5 mph 12.7 mph 52 % 0.00 in 0.0 W/m2 CLR
Air Products Campus Weather
Compliments of Weather Underground - 3.5 mb